Weather at Carrigart Airstrip

Public forecast

Using degrees Celsius for public forecast. Weather courtesy of forecast.io.

Closest aviation weather report (METAR) to Carrigart Airstrip

Closest report is City of Derry Airport, 20.2 nm (37.3 km) ESE.

2024/05/22 20:20 (retrieved 2 hours ago)

EGAE 222020Z 34020KT 9999 FEW010 BKN018 11/09 Q1014

Closest aviation forecast (TAF) to Carrigart Airstrip

Closest forecast is Belfast International Airport, 59.8 nm (110.8 km) ESE.

2024/05/22 18:00 (retrieved 4 hours ago)

TAF EGAA 221656Z 2218/2318 33015G25KT 9999 BKN010 PROB40 TEMPO 2218/2312 33020G35KT PROB30 TEMPO 2218/2222 4000 RA BKN004 BECMG 2222/2301 SCT016 PROB40 TEMPO 2301/2312 7000 BKN010 BECMG 2317/2318 33012KT